createdAt,value
2023-03-16T00:02:15.759Z,6.30
2023-03-16T00:04:47.382Z,5.40
2023-03-16T00:07:16.448Z,6.23
2023-03-16T00:09:44.890Z,6.80
2023-03-16T00:12:16.008Z,5.03
2023-03-16T00:14:44.994Z,5.63
2023-03-16T00:17:19.233Z,4.83
2023-03-16T00:19:48.822Z,5.43
2023-03-16T00:22:17.544Z,6.30
2023-03-16T00:24:45.854Z,6.93
2023-03-16T00:27:15.436Z,5.23
2023-03-16T00:29:48.063Z,5.13
2023-03-16T00:32:18.960Z,6.07
2023-03-16T00:34:47.867Z,6.37
2023-03-16T00:37:17.897Z,5.87
2023-03-16T00:39:46.987Z,4.13
2023-03-16T00:42:16.168Z,5.90
2023-03-16T00:44:44.556Z,3.97
2023-03-16T00:47:15.272Z,6.33
2023-03-16T00:49:45.649Z,5.90
2023-03-16T00:52:15.685Z,6.10
2023-03-16T00:54:44.484Z,6.17
2023-03-16T00:57:13.749Z,6.70
2023-03-16T00:59:42.582Z,5.17
2023-03-16T01:02:11.561Z,6.40
2023-03-16T01:04:41.310Z,6.93
2023-03-16T01:07:12.271Z,7.07
2023-03-16T01:09:40.890Z,6.17
2023-03-16T01:12:11.180Z,6.83
2023-03-16T01:14:39.834Z,7.20
2023-03-16T01:17:09.394Z,7.23
2023-03-16T01:19:38.199Z,7.27
2023-03-16T01:22:06.633Z,7.20
2023-03-16T01:24:36.387Z,7.47
2023-03-16T01:27:05.354Z,7.83
2023-03-16T01:29:34.195Z,7.30
2023-03-16T01:32:04.009Z,7.00
2023-03-16T01:34:32.351Z,7.63
2023-03-16T01:37:00.922Z,7.60
2023-03-16T01:39:29.433Z,5.93
2023-03-16T01:41:59.105Z,7.67
2023-03-16T01:44:30.637Z,7.47
2023-03-16T01:46:59.161Z,6.87
2023-03-16T01:49:29.396Z,6.87
2023-03-16T01:51:59.552Z,7.20
2023-03-16T01:54:29.277Z,8.03
2023-03-16T01:57:01.743Z,6.83
2023-03-16T01:59:32.513Z,8.50
2023-03-16T02:02:01.085Z,10.17
2023-03-16T02:04:33.973Z,8.33
2023-03-16T02:07:02.851Z,9.47
2023-03-16T02:09:31.226Z,8.67
2023-03-16T02:12:01.440Z,7.77
2023-03-16T02:14:29.867Z,8.00
2023-03-16T02:16:58.455Z,7.97
2023-03-16T02:19:36.331Z,8.53
2023-03-16T02:22:06.378Z,8.23
2023-03-16T02:24:34.948Z,7.10
2023-03-16T02:27:06.092Z,6.23
2023-03-16T02:29:54.756Z,7.90
2023-03-16T02:32:24.364Z,7.53
2023-03-16T02:34:52.969Z,6.07
2023-03-16T02:37:21.998Z,8.70
2023-03-16T02:39:50.365Z,5.90
2023-03-16T02:42:24.125Z,6.63
2023-03-16T02:44:55.176Z,8.83
2023-03-16T02:47:26.824Z,8.00
2023-03-16T02:49:55.435Z,7.07
2023-03-16T02:52:23.847Z,9.10
2023-03-16T02:54:52.362Z,8.93
2023-03-16T02:57:21.180Z,9.57
2023-03-16T02:59:49.542Z,6.90
2023-03-16T03:02:19.326Z,8.30
2023-03-16T03:04:47.634Z,7.80
2023-03-16T03:07:16.443Z,8.53
2023-03-16T03:09:45.103Z,8.40
2023-03-16T03:12:14.127Z,7.50
2023-03-16T03:14:42.715Z,8.40
2023-03-16T03:17:13.387Z,8.40
2023-03-16T03:19:43.426Z,9.80
2023-03-16T03:22:11.900Z,9.10
2023-03-16T03:24:40.324Z,9.20
2023-03-16T03:27:08.689Z,7.50
2023-03-16T03:29:37.068Z,8.03
2023-03-16T03:32:06.374Z,6.87
2023-03-16T03:34:34.723Z,8.70
2023-03-16T03:37:04.524Z,10.53
2023-03-16T03:39:32.899Z,8.77
2023-03-16T03:42:03.031Z,10.40
2023-03-16T03:44:34.645Z,10.20
2023-03-16T03:47:03.114Z,9.20
2023-03-16T03:49:31.719Z,10.57
2023-03-16T03:52:02.115Z,10.87
2023-03-16T03:54:31.868Z,9.70
2023-03-16T03:57:00.245Z,8.70
2023-03-16T03:59:28.619Z,9.20
2023-03-16T04:01:57.081Z,10.57
2023-03-16T04:04:25.609Z,8.57
2023-03-16T04:06:53.947Z,9.47
2023-03-16T04:09:22.275Z,10.33
2023-03-16T04:11:52.174Z,9.53
2023-03-16T04:14:20.534Z,8.17
2023-03-16T04:16:48.872Z,8.37
2023-03-16T04:19:17.268Z,10.27
2023-03-16T04:21:45.689Z,10.57
2023-03-16T04:24:14.844Z,10.67
2023-03-16T04:26:45.090Z,7.70
2023-03-16T04:29:18.332Z,10.17
2023-03-16T04:31:47.242Z,8.07
2023-03-16T04:34:15.776Z,8.40
2023-03-16T04:36:44.196Z,9.07
2023-03-16T04:39:12.542Z,9.57
2023-03-16T04:41:40.890Z,7.73
2023-03-16T04:44:09.292Z,9.47
2023-03-16T04:46:39.140Z,10.53
2023-03-16T04:49:09.733Z,8.77
2023-03-16T04:51:40.592Z,8.17
2023-03-16T04:54:09.069Z,10.73
2023-03-16T04:56:37.445Z,9.07
2023-03-16T04:59:05.827Z,8.07
2023-03-16T05:01:34.162Z,9.90
2023-03-16T05:04:03.863Z,10.10
2023-03-16T05:06:32.281Z,11.17
2023-03-16T05:09:01.941Z,10.53
2023-03-16T05:11:30.682Z,11.30
2023-03-16T05:13:59.058Z,10.73
2023-03-16T05:16:27.394Z,9.53
2023-03-16T05:18:55.755Z,9.73
2023-03-16T05:21:25.520Z,9.30
2023-03-16T05:23:53.907Z,10.10
2023-03-16T05:26:22.232Z,9.80
2023-03-16T05:28:50.608Z,9.53
2023-03-16T05:31:19.123Z,6.47
2023-03-16T05:33:48.254Z,7.37
2023-03-16T05:36:17.558Z,7.37
2023-03-16T05:38:47.316Z,10.00
2023-03-16T05:41:15.679Z,9.47
2023-03-16T05:43:44.048Z,10.47
2023-03-16T05:46:12.523Z,7.63
2023-03-16T05:48:41.274Z,8.73
2023-03-16T05:51:09.666Z,9.13
2023-03-16T05:53:38.001Z,8.40
2023-03-16T05:56:08.185Z,8.20
2023-03-16T05:58:36.538Z,9.10
2023-03-16T06:01:06.147Z,7.87
2023-03-16T06:03:34.637Z,8.27
2023-03-16T06:06:03.441Z,8.53
2023-03-16T06:08:31.789Z,8.13
2023-03-16T06:11:00.163Z,9.90
2023-03-16T06:13:30.042Z,8.37
2023-03-16T06:15:58.482Z,8.27
2023-03-16T06:18:26.817Z,5.90
2023-03-16T06:20:55.207Z,7.17
2023-03-16T06:23:23.591Z,8.07
2023-03-16T06:25:54.575Z,7.03
2023-03-16T06:28:23.042Z,8.37
2023-03-16T06:30:54.828Z,7.20
2023-03-16T06:33:23.605Z,8.07
2023-03-16T06:35:52.479Z,8.20
2023-03-16T06:38:21.336Z,7.27
2023-03-16T06:40:53.118Z,6.57
2023-03-16T06:43:21.741Z,6.50
2023-03-16T06:45:50.109Z,5.83
2023-03-16T06:48:19.830Z,5.60
2023-03-16T06:50:48.268Z,5.50
2023-03-16T06:53:16.619Z,5.30
2023-03-16T06:55:45.020Z,5.03
2023-03-16T06:58:13.370Z,4.83
2023-03-16T07:00:42.233Z,4.90
2023-03-16T07:03:10.679Z,5.10
2023-03-16T07:05:40.441Z,4.77
2023-03-16T07:08:09.353Z,5.37
2023-03-16T07:10:37.724Z,4.63
2023-03-16T07:13:06.043Z,4.77
2023-03-16T07:15:34.418Z,6.00
2023-03-16T07:18:02.740Z,4.10
2023-03-16T07:20:33.101Z,2.83
2023-03-16T07:23:02.806Z,5.40
2023-03-16T07:25:31.735Z,6.03
2023-03-16T07:28:00.315Z,5.00
2023-03-16T07:30:28.894Z,6.27
2023-03-16T07:32:57.613Z,5.53
2023-03-16T07:35:26.663Z,5.07
2023-03-16T07:37:55.313Z,5.40
2023-03-16T07:40:25.244Z,5.50
2023-03-16T07:42:53.664Z,5.97
2023-03-16T07:45:22.204Z,6.97
2023-03-16T07:47:51.220Z,4.80
2023-03-16T07:50:19.614Z,5.30
2023-03-16T07:52:47.960Z,5.77
2023-03-16T07:55:16.464Z,6.17
2023-03-16T07:57:48.314Z,6.43
2023-03-16T08:00:17.554Z,6.77
2023-03-16T08:02:46.028Z,6.10
2023-03-16T08:05:15.811Z,6.37
2023-03-16T08:07:45.817Z,5.63
2023-03-16T08:10:14.519Z,5.43
2023-03-16T08:12:43.014Z,6.73
2023-03-16T08:15:13.674Z,6.17
2023-03-16T08:17:42.829Z,3.37
2023-03-16T08:20:15.017Z,4.63
2023-03-16T08:22:46.745Z,3.53
2023-03-16T08:25:16.392Z,4.87
2023-03-16T08:27:44.765Z,4.83
2023-03-16T08:30:15.627Z,2.73
2023-03-16T08:32:44.523Z,5.23
2023-03-16T08:35:16.872Z,5.17
2023-03-16T08:37:46.345Z,5.80
2023-03-16T08:40:16.713Z,5.40
2023-03-16T08:42:45.468Z,4.90
2023-03-16T08:45:15.474Z,5.90
2023-03-16T08:47:44.000Z,4.13
2023-03-16T08:50:14.080Z,5.93
2023-03-16T08:52:42.857Z,5.00
2023-03-16T08:55:14.064Z,5.37
2023-03-16T08:57:44.994Z,4.87
2023-03-16T09:00:15.860Z,4.30
2023-03-16T09:02:44.536Z,5.93
2023-03-16T09:05:15.013Z,5.63
2023-03-16T09:07:43.802Z,5.30
2023-03-16T09:10:16.049Z,5.50
2023-03-16T09:12:48.247Z,5.57
2023-03-16T09:15:18.349Z,4.60
2023-03-16T09:17:48.956Z,5.03
2023-03-16T09:20:22.809Z,4.57
2023-03-16T09:22:54.834Z,4.27
2023-03-16T09:25:24.235Z,4.27
2023-03-16T09:27:52.772Z,4.67
2023-03-16T09:30:22.776Z,5.43
2023-03-16T09:32:51.527Z,4.67
2023-03-16T09:35:20.279Z,3.37
2023-03-16T09:38:05.193Z,3.63
2023-03-16T09:40:36.393Z,5.40
2023-03-16T09:43:16.889Z,4.53
2023-03-16T09:45:48.836Z,4.00
2023-03-16T09:48:18.550Z,4.90
2023-03-16T09:50:49.281Z,5.60
2023-03-16T09:53:24.932Z,4.77
2023-03-16T09:55:55.311Z,2.90
2023-03-16T09:58:24.138Z,8.87
2023-03-16T10:00:57.621Z,4.63
2023-03-16T10:03:38.617Z,4.90
2023-03-16T10:06:10.551Z,5.20
2023-03-16T10:08:40.821Z,3.60
2023-03-16T10:11:31.560Z,4.30
2023-03-16T10:14:04.827Z,4.43
2023-03-16T10:16:38.292Z,5.20
2023-03-16T10:19:12.797Z,4.77
2023-03-16T10:21:46.182Z,4.90
2023-03-16T10:24:18.260Z,3.90
2023-03-16T10:26:48.494Z,3.67
2023-03-16T10:29:16.930Z,3.77
2023-03-16T10:31:47.459Z,4.60
2023-03-16T10:34:16.173Z,4.80
2023-03-16T10:36:47.839Z,2.80
2023-03-16T10:39:17.629Z,4.17
2023-03-16T10:41:47.077Z,4.90
2023-03-16T10:44:16.952Z,3.87
2023-03-16T10:46:49.286Z,3.00
2023-03-16T10:49:27.204Z,4.40
2023-03-16T10:51:59.464Z,4.60
2023-03-16T10:54:30.967Z,3.77
2023-03-16T10:57:00.494Z,3.97
2023-03-16T10:59:34.336Z,3.37
2023-03-16T11:02:16.949Z,3.37
2023-03-16T11:04:46.148Z,3.93
2023-03-16T11:07:18.018Z,3.70
2023-03-16T11:09:47.278Z,4.33
2023-03-16T11:12:17.305Z,4.00
2023-03-16T11:14:46.898Z,3.13
2023-03-16T11:17:18.678Z,3.50
2023-03-16T11:19:51.602Z,2.60
2023-03-16T11:22:21.538Z,3.93
2023-03-16T11:24:52.189Z,3.13
2023-03-16T11:27:24.596Z,3.00
2023-03-16T11:29:59.445Z,4.93
2023-03-16T11:32:31.909Z,3.50
2023-03-16T11:35:01.243Z,3.83
2023-03-16T11:37:37.948Z,2.53
2023-03-16T11:40:15.406Z,3.67
2023-03-16T11:42:47.453Z,2.97
2023-03-16T11:45:20.798Z,3.03
2023-03-16T11:48:01.198Z,3.13
2023-03-16T11:50:35.392Z,3.03
2023-03-16T11:53:08.468Z,3.10
2023-03-16T11:55:42.002Z,3.40
2023-03-16T11:58:21.147Z,3.07
2023-03-16T12:00:53.720Z,3.40
2023-03-16T12:03:30.028Z,2.90
2023-03-16T12:06:03.620Z,2.73
2023-03-16T12:08:43.714Z,2.37
2023-03-16T12:11:14.893Z,2.80
2023-03-16T12:13:52.543Z,2.40
2023-03-16T12:16:24.475Z,2.20
2023-03-16T12:18:56.057Z,2.90
2023-03-16T12:21:26.758Z,3.03
2023-03-16T12:23:55.977Z,2.53
2023-03-16T12:26:29.829Z,2.30
2023-03-16T12:28:59.805Z,2.83
2023-03-16T12:31:32.806Z,2.57
2023-03-16T12:34:09.896Z,1.43
2023-03-16T12:36:55.907Z,2.77
2023-03-16T12:39:34.726Z,2.10
2023-03-16T12:42:10.034Z,2.33
2023-03-16T12:44:40.466Z,1.93
2023-03-16T12:47:12.583Z,2.80
2023-03-16T12:49:43.199Z,1.93
2023-03-16T12:52:12.584Z,2.70
2023-03-16T12:54:51.743Z,2.93
2023-03-16T12:57:20.894Z,3.13
2023-03-16T12:59:51.759Z,3.07
2023-03-16T13:02:22.290Z,3.50
2023-03-16T13:04:59.165Z,2.80
2023-03-16T13:07:28.424Z,2.90
2023-03-16T13:09:59.124Z,2.10
2023-03-16T13:12:28.960Z,2.80
2023-03-16T13:14:57.781Z,2.90
2023-03-16T13:17:27.359Z,2.90
2023-03-16T13:20:29.549Z,3.23
2023-03-16T13:23:22.221Z,2.03
2023-03-16T13:26:01.813Z,1.70
2023-03-16T13:28:31.536Z,2.40
2023-03-16T13:31:02.870Z,2.30
2023-03-16T13:33:33.078Z,2.60
2023-03-16T13:36:02.511Z,2.40
2023-03-16T13:38:32.528Z,2.83
2023-03-16T13:41:06.123Z,3.27
2023-03-16T13:43:37.235Z,2.80
2023-03-16T13:46:15.876Z,2.40
2023-03-16T13:48:44.484Z,1.80
2023-03-16T13:51:16.625Z,2.17
2023-03-16T13:53:47.023Z,2.27
2023-03-16T13:56:16.905Z,2.77
2023-03-16T13:58:46.471Z,2.27
2023-03-16T14:01:19.122Z,2.30
2023-03-16T14:03:49.116Z,2.47
2023-03-16T14:06:25.261Z,2.47
2023-03-16T14:08:56.298Z,2.50
2023-03-16T14:11:24.755Z,2.20
2023-03-16T14:13:54.708Z,2.20
2023-03-16T14:16:25.551Z,2.37
2023-03-16T14:18:55.946Z,1.23
2023-03-16T14:21:25.589Z,2.20
2023-03-16T14:23:56.585Z,3.07
2023-03-16T14:26:25.154Z,2.50
2023-03-16T14:28:58.470Z,1.63
2023-03-16T14:31:33.883Z,2.60
2023-03-16T14:34:03.849Z,2.10
2023-03-16T14:36:40.874Z,1.57
2023-03-16T14:39:14.479Z,1.53
2023-03-16T14:41:43.525Z,1.80
2023-03-16T14:44:19.649Z,2.73
2023-03-16T14:46:48.066Z,2.17
2023-03-16T14:49:22.156Z,2.03
2023-03-16T14:51:52.736Z,2.07
2023-03-16T14:54:24.001Z,3.03
2023-03-16T14:56:53.218Z,1.97
2023-03-16T14:59:21.985Z,1.97
2023-03-16T15:01:51.190Z,1.93
2023-03-16T15:04:22.561Z,1.47
2023-03-16T15:06:51.100Z,1.30
2023-03-16T15:09:29.297Z,1.83
2023-03-16T15:11:58.371Z,1.97
2023-03-16T15:14:44.183Z,2.13
2023-03-16T15:17:12.612Z,1.57
2023-03-16T15:19:41.198Z,1.23
2023-03-16T15:22:12.605Z,1.80
2023-03-16T15:24:42.734Z,1.90
2023-03-16T15:27:19.968Z,1.57
2023-03-16T15:29:48.588Z,1.87
2023-03-16T15:32:17.662Z,1.73
2023-03-16T15:34:46.714Z,2.07
2023-03-16T15:37:16.156Z,2.00
2023-03-16T15:39:46.773Z,1.77
2023-03-16T15:42:16.612Z,1.70
2023-03-16T15:44:45.134Z,1.40
2023-03-16T15:47:14.641Z,1.50
2023-03-16T15:49:47.770Z,1.80
2023-03-16T15:52:22.859Z,1.67
2023-03-16T15:54:57.403Z,1.60
2023-03-16T15:57:25.856Z,1.17
2023-03-16T15:59:54.735Z,1.03
2023-03-16T16:02:29.061Z,2.50
2023-03-16T16:04:57.546Z,1.90
2023-03-16T16:07:26.893Z,1.37
2023-03-16T16:10:14.378Z,1.50
2023-03-16T16:12:42.934Z,1.47
2023-03-16T16:15:19.990Z,1.67
2023-03-16T16:18:08.571Z,1.50
2023-03-16T16:20:37.773Z,1.30
2023-03-16T16:23:06.248Z,1.60
2023-03-16T16:25:38.066Z,1.80
2023-03-16T16:28:08.320Z,1.50
2023-03-16T16:30:37.747Z,2.23
2023-03-16T16:33:06.558Z,1.73
2023-03-16T16:35:35.275Z,1.97
2023-03-16T16:38:04.198Z,1.60
2023-03-16T16:40:36.768Z,1.60
2023-03-16T16:43:07.476Z,1.60
2023-03-16T16:45:35.946Z,1.87
2023-03-16T16:48:04.999Z,1.60
2023-03-16T16:50:33.769Z,1.87
2023-03-16T16:53:02.218Z,1.63
2023-03-16T16:55:30.909Z,1.73
2023-03-16T16:57:59.420Z,1.43
2023-03-16T17:00:29.384Z,1.13
2023-03-16T17:02:58.595Z,1.60
2023-03-16T17:05:28.135Z,1.97
2023-03-16T17:07:56.970Z,1.70
2023-03-16T17:10:27.118Z,1.73
2023-03-16T17:12:57.187Z,1.70
2023-03-16T17:15:27.944Z,1.60
2023-03-16T17:18:00.277Z,1.77
2023-03-16T17:20:29.441Z,1.70
2023-03-16T17:23:00.229Z,1.80
2023-03-16T17:25:30.334Z,1.80
2023-03-16T17:27:59.313Z,2.30
2023-03-16T17:30:28.657Z,1.87
2023-03-16T17:33:01.264Z,1.30
2023-03-16T17:35:29.861Z,1.80
2023-03-16T17:37:58.647Z,1.50
2023-03-16T17:40:27.439Z,2.10
2023-03-16T17:42:56.743Z,1.90
2023-03-16T17:45:26.204Z,2.00
2023-03-16T17:47:55.739Z,1.90
2023-03-16T17:50:28.864Z,1.80
2023-03-16T17:52:57.538Z,1.50
2023-03-16T17:55:26.478Z,1.80
2023-03-16T17:57:55.492Z,1.97
2023-03-16T18:00:25.970Z,1.90
2023-03-16T18:02:55.320Z,1.90
2023-03-16T18:05:26.544Z,1.70
2023-03-16T18:07:55.463Z,2.10
2023-03-16T18:10:24.952Z,2.00
2023-03-16T18:13:01.843Z,2.00
2023-03-16T18:15:32.336Z,2.47
2023-03-16T18:18:01.522Z,1.93
2023-03-16T18:20:33.726Z,1.70
2023-03-16T18:23:03.102Z,2.00
2023-03-16T18:25:33.789Z,2.50
2023-03-16T18:28:02.855Z,2.37
2023-03-16T18:30:31.675Z,2.30
2023-03-16T18:33:00.898Z,2.17
2023-03-16T18:35:31.211Z,2.40
2023-03-16T18:37:59.772Z,2.60
2023-03-16T18:40:29.146Z,2.60
2023-03-16T18:42:57.864Z,2.50
2023-03-16T18:45:33.502Z,3.00
2023-03-16T18:48:01.906Z,3.40
2023-03-16T18:50:31.601Z,3.37
2023-03-16T18:53:00.029Z,2.80
2023-03-16T18:55:28.790Z,2.20
2023-03-16T18:57:58.689Z,1.87
2023-03-16T19:00:29.697Z,2.47
2023-03-16T19:02:59.860Z,1.73
2023-03-16T19:05:31.582Z,2.00
2023-03-16T19:08:01.574Z,1.23
2023-03-16T19:10:31.851Z,2.07
2023-03-16T19:13:00.606Z,1.93
2023-03-16T19:15:30.596Z,2.37
2023-03-16T19:17:59.794Z,2.70
2023-03-16T19:20:29.751Z,1.40
2023-03-16T19:23:01.568Z,2.37
2023-03-16T19:25:32.209Z,2.07
2023-03-16T19:28:01.239Z,2.00
2023-03-16T19:30:30.651Z,2.97
2023-03-16T19:32:59.469Z,2.60
2023-03-16T19:35:48.431Z,2.07
2023-03-16T19:38:18.117Z,1.90
2023-03-16T19:40:48.225Z,1.80
2023-03-16T19:43:18.449Z,2.27
2023-03-16T19:45:47.308Z,2.00
2023-03-16T19:48:20.327Z,2.10
2023-03-16T19:50:49.340Z,2.27
2023-03-16T19:53:18.879Z,2.37
2023-03-16T19:55:49.449Z,1.57
2023-03-16T19:58:21.613Z,1.90
2023-03-16T20:00:50.049Z,2.53
2023-03-16T20:03:18.471Z,2.40
2023-03-16T20:05:46.817Z,2.63
2023-03-16T20:08:20.684Z,2.30
2023-03-16T20:10:50.846Z,2.00
2023-03-16T20:13:20.075Z,2.33
2023-03-16T20:15:48.621Z,2.40
2023-03-16T20:18:18.703Z,2.60
2023-03-16T20:20:47.817Z,1.67
2023-03-16T20:23:18.645Z,2.80
2023-03-16T20:25:47.705Z,2.10
2023-03-16T20:28:20.535Z,2.50
2023-03-16T20:30:49.397Z,3.17
2023-03-16T20:33:18.936Z,2.67
2023-03-16T20:35:49.552Z,2.57
2023-03-16T20:38:18.448Z,2.83
2023-03-16T20:40:47.607Z,2.07
2023-03-16T20:43:24.082Z,2.80
2023-03-16T20:45:52.823Z,2.50
2023-03-16T20:48:21.272Z,1.80
2023-03-16T20:50:49.794Z,1.93
2023-03-16T20:53:18.287Z,2.43
2023-03-16T20:55:47.692Z,3.00
2023-03-16T20:58:19.383Z,2.07
2023-03-16T21:00:50.572Z,2.03
2023-03-16T21:03:20.716Z,1.80
2023-03-16T21:05:49.516Z,2.20
2023-03-16T21:08:17.868Z,2.43
2023-03-16T21:10:47.183Z,2.20
2023-03-16T21:13:18.529Z,2.10
2023-03-16T21:15:47.106Z,2.40
2023-03-16T21:18:21.542Z,2.50
2023-03-16T21:20:50.883Z,2.00
2023-03-16T21:23:20.805Z,2.20
2023-03-16T21:25:50.464Z,2.33
2023-03-16T21:28:20.463Z,2.60
2023-03-16T21:30:50.320Z,2.33
2023-03-16T21:33:24.752Z,2.60
2023-03-16T21:35:53.217Z,2.67
2023-03-16T21:38:24.124Z,2.50
2023-03-16T21:40:52.560Z,2.83
2023-03-16T21:43:20.986Z,2.43
2023-03-16T21:45:50.690Z,2.77
2023-03-16T21:48:23.292Z,3.00
2023-03-16T21:50:53.897Z,2.67
2023-03-16T21:53:23.251Z,3.10
2023-03-16T21:55:52.147Z,2.77
2023-03-16T21:58:21.365Z,2.90
2023-03-16T22:00:50.073Z,3.20
2023-03-16T22:03:24.243Z,2.90
2023-03-16T22:05:54.311Z,2.60
2023-03-16T22:08:23.752Z,2.80
2023-03-16T22:10:52.302Z,2.87
2023-03-16T22:13:21.289Z,3.23
2023-03-16T22:15:51.650Z,2.67
2023-03-16T22:18:27.724Z,2.87
2023-03-16T22:20:58.320Z,3.30
2023-03-16T22:23:31.868Z,3.33
2023-03-16T22:26:00.430Z,3.57
2023-03-16T22:28:29.231Z,2.20
2023-03-16T22:30:58.951Z,2.57
2023-03-16T22:33:29.778Z,3.50
2023-03-16T22:36:01.553Z,3.00
2023-03-16T22:38:29.999Z,3.37
2023-03-16T22:40:58.362Z,2.70
2023-03-16T22:43:30.318Z,3.57
2023-03-16T22:45:59.175Z,3.73
2023-03-16T22:48:28.596Z,3.70
2023-03-16T22:50:57.983Z,3.63
2023-03-16T22:53:29.182Z,3.50
2023-03-16T22:56:00.781Z,3.40
2023-03-16T22:58:31.458Z,3.97
2023-03-16T23:01:00.544Z,3.53
2023-03-16T23:03:29.112Z,4.27
2023-03-16T23:05:57.461Z,3.43
2023-03-16T23:08:26.711Z,3.90
2023-03-16T23:10:56.506Z,3.93
2023-03-16T23:13:25.686Z,3.43
2023-03-16T23:15:55.409Z,3.33
2023-03-16T23:18:24.927Z,3.40
2023-03-16T23:20:53.950Z,3.30
2023-03-16T23:23:22.541Z,3.83
2023-03-16T23:25:50.929Z,2.80
2023-03-16T23:28:23.088Z,4.47
2023-03-16T23:30:51.762Z,3.90
2023-03-16T23:33:20.166Z,3.73
2023-03-16T23:35:48.604Z,3.53
2023-03-16T23:38:17.396Z,3.17
2023-03-16T23:40:45.817Z,3.83
2023-03-16T23:43:14.173Z,3.40
2023-03-16T23:45:44.748Z,3.13
2023-03-16T23:48:14.591Z,3.83
2023-03-16T23:50:43.039Z,3.27
2023-03-16T23:53:14.814Z,2.37
2023-03-16T23:55:43.507Z,3.37
2023-03-16T23:58:12.308Z,4.20
